sensor_id;sensor_type;location;lat;lon;timestamp;pressure;altitude;pressure_sealevel;temperature;humidity
86320;BME280;76974;51.278;16.870;2024-03-08T03:01:57;100892.13;;;-4.27;87.86
86320;BME280;76974;51.278;16.870;2024-03-08T03:04:23;100882.44;;;-4.43;86.26
86320;BME280;76974;51.278;16.870;2024-03-08T03:06:49;100889.81;;;-4.33;85.92
86320;BME280;76974;51.278;16.870;2024-03-08T03:09:14;100894.31;;;-4.35;85.98
86320;BME280;76974;51.278;16.870;2024-03-08T03:11:44;100887.38;;;-4.37;85.51
86320;BME280;76974;51.278;16.870;2024-03-08T03:14:10;100888.41;;;-4.40;86.53
86320;BME280;76974;51.278;16.870;2024-03-08T03:16:35;100895.09;;;-4.33;87.06
86320;BME280;76974;51.278;16.870;2024-03-08T03:19:01;100894.53;;;-4.39;88.05
86320;BME280;76974;51.278;16.870;2024-03-08T03:21:30;100886.38;;;-4.69;86.58
86320;BME280;76974;51.278;16.870;2024-03-08T03:23:57;100899.28;;;-4.63;86.27
86320;BME280;76974;51.278;16.870;2024-03-08T03:26:24;100881.16;;;-4.71;86.37
86320;BME280;76974;51.278;16.870;2024-03-08T03:28:51;100887.38;;;-4.72;85.96
86320;BME280;76974;51.278;16.870;2024-03-08T03:31:17;100886.16;;;-4.65;87.36
86320;BME280;76974;51.278;16.870;2024-03-08T03:33:44;100887.03;;;-4.47;87.23
86320;BME280;76974;51.278;16.870;2024-03-08T03:36:09;100886.69;;;-4.58;86.91
86320;BME280;76974;51.278;16.870;2024-03-08T03:38:36;100883.13;;;-4.57;86.76
86320;BME280;76974;51.278;16.870;2024-03-08T03:41:02;100886.09;;;-4.63;88.41
86320;BME280;76974;51.278;16.870;2024-03-08T03:43:36;100887.63;;;-4.42;89.47
86320;BME280;76974;51.278;16.870;2024-03-08T03:46:06;100888.72;;;-4.29;88.44
86320;BME280;76974;51.278;16.870;2024-03-08T03:48:32;100871.16;;;-4.64;86.50
86320;BME280;76974;51.278;16.870;2024-03-08T03:50:58;100882.44;;;-4.61;87.37
86320;BME280;76974;51.278;16.870;2024-03-08T03:53:24;100870.78;;;-4.74;85.78
86320;BME280;76974;51.278;16.870;2024-03-08T03:55:51;100881.66;;;-4.80;86.55
86320;BME280;76974;51.278;16.870;2024-03-08T03:58:17;100884.44;;;-4.83;88.02
86320;BME280;76974;51.278;16.870;2024-03-08T04:00:48;100884.22;;;-4.78;86.26
86320;BME280;76974;51.278;16.870;2024-03-08T04:03:14;100875.81;;;-4.69;88.17
86320;BME280;76974;51.278;16.870;2024-03-08T04:05:40;100887.94;;;-4.65;87.83
86320;BME280;76974;51.278;16.870;2024-03-08T04:08:05;100878.72;;;-4.74;85.86
86320;BME280;76974;51.278;16.870;2024-03-08T04:10:32;100884.75;;;-4.72;86.41
86320;BME280;76974;51.278;16.870;2024-03-08T04:12:57;100887.47;;;-4.73;86.71
86320;BME280;76974;51.278;16.870;2024-03-08T04:15:23;100881.66;;;-4.80;87.06
86320;BME280;76974;51.278;16.870;2024-03-08T04:17:49;100890.50;;;-4.81;87.63
86320;BME280;76974;51.278;16.870;2024-03-08T04:20:14;100881.56;;;-4.78;88.01
86320;BME280;76974;51.278;16.870;2024-03-08T04:22:41;100868.66;;;-4.84;88.34
86320;BME280;76974;51.278;16.870;2024-03-08T04:25:07;100886.53;;;-4.72;87.85
86320;BME280;76974;51.278;16.870;2024-03-08T04:27:33;100883.22;;;-4.76;86.21
86320;BME280;76974;51.278;16.870;2024-03-08T04:30:00;100866.00;;;-5.02;85.71
86320;BME280;76974;51.278;16.870;2024-03-08T04:32:25;100886.56;;;-5.08;85.60
86320;BME280;76974;51.278;16.870;2024-03-08T04:34:51;100887.56;;;-5.11;87.70
86320;BME280;76974;51.278;16.870;2024-03-08T04:37:16;100886.31;;;-5.04;87.17
86320;BME280;76974;51.278;16.870;2024-03-08T04:39:47;100852.47;;;-5.13;86.71
86320;BME280;76974;51.278;16.870;2024-03-08T04:42:14;100879.69;;;-4.93;87.08
86320;BME280;76974;51.278;16.870;2024-03-08T04:44:40;100879.06;;;-4.99;86.83
86320;BME280;76974;51.278;16.870;2024-03-08T04:47:06;100884.88;;;-5.09;87.43
86320;BME280;76974;51.278;16.870;2024-03-08T04:49:34;100884.22;;;-5.14;86.67
86320;BME280;76974;51.278;16.870;2024-03-08T04:52:02;100876.31;;;-5.14;87.08
86320;BME280;76974;51.278;16.870;2024-03-08T04:54:28;100878.22;;;-5.35;87.32
86320;BME280;76974;51.278;16.870;2024-03-08T04:56:54;100881.28;;;-5.08;89.73
86320;BME280;76974;51.278;16.870;2024-03-08T04:59:19;100884.00;;;-5.10;88.33
86320;BME280;76974;51.278;16.870;2024-03-08T05:01:45;100884.16;;;-5.13;87.98
86320;BME280;76974;51.278;16.870;2024-03-08T05:04:11;100871.59;;;-5.08;88.68
86320;BME280;76974;51.278;16.870;2024-03-08T05:06:36;100886.94;;;-5.16;87.08
86320;BME280;76974;51.278;16.870;2024-03-08T05:09:05;100882.47;;;-5.33;85.93
86320;BME280;76974;51.278;16.870;2024-03-08T05:11:47;100869.34;;;-5.34;88.42
86320;BME280;76974;51.278;16.870;2024-03-08T05:14:14;100868.72;;;-5.03;89.84
86320;BME280;76974;51.278;16.870;2024-03-08T05:16:48;100873.63;;;-4.96;89.11
86320;BME280;76974;51.278;16.870;2024-03-08T05:19:18;100878.75;;;-4.92;88.88
86320;BME280;76974;51.278;16.870;2024-03-08T05:21:48;100873.63;;;-4.96;88.17
86320;BME280;76974;51.278;16.870;2024-03-08T05:24:14;100874.63;;;-4.98;88.08
86320;BME280;76974;51.278;16.870;2024-03-08T05:26:41;100878.75;;;-4.92;88.84
86320;BME280;76974;51.278;16.870;2024-03-08T05:29:07;100875.59;;;-4.82;87.80
86320;BME280;76974;51.278;16.870;2024-03-08T05:31:54;100875.41;;;-4.96;87.94
86320;BME280;76974;51.278;16.870;2024-03-08T05:34:21;100868.03;;;-5.07;87.12
86320;BME280;76974;51.278;16.870;2024-03-08T05:36:50;100879.47;;;-4.72;89.53
86320;BME280;76974;51.278;16.870;2024-03-08T05:39:16;100857.63;;;-4.92;88.95
86320;BME280;76974;51.278;16.870;2024-03-08T05:41:43;100872.56;;;-4.74;88.77
86320;BME280;76974;51.278;16.870;2024-03-08T05:44:10;100867.09;;;-4.88;87.44
86320;BME280;76974;51.278;16.870;2024-03-08T05:46:36;100872.69;;;-4.94;87.80
86320;BME280;76974;51.278;16.870;2024-03-08T05:49:03;100876.63;;;-5.03;88.06
86320;BME280;76974;51.278;16.870;2024-03-08T05:51:36;100869.28;;;-4.79;86.91
86320;BME280;76974;51.278;16.870;2024-03-08T05:54:06;100856.72;;;-4.74;87.01
86320;BME280;76974;51.278;16.870;2024-03-08T05:56:34;100873.25;;;-4.53;85.81
86320;BME280;76974;51.278;16.870;2024-03-08T05:58:59;100866.38;;;-4.23;85.46
86320;BME280;76974;51.278;16.870;2024-03-08T06:08:10;100868.19;;;-3.91;85.56
86320;BME280;76974;51.278;16.870;2024-03-08T06:10:37;100876.59;;;-3.51;84.37
86320;BME280;76974;51.278;16.870;2024-03-08T06:13:04;100877.34;;;-3.17;83.46
86320;BME280;76974;51.278;16.870;2024-03-08T06:15:30;100874.38;;;-3.27;84.37
86320;BME280;76974;51.278;16.870;2024-03-08T06:20:59;100872.56;;;-2.65;82.96
86320;BME280;76974;51.278;16.870;2024-03-08T06:23:25;100867.41;;;-2.53;83.11
86320;BME280;76974;51.278;16.870;2024-03-08T06:25:53;100878.38;;;-2.15;83.02
86320;BME280;76974;51.278;16.870;2024-03-08T06:31:40;100870.94;;;-1.53;81.65
86320;BME280;76974;51.278;16.870;2024-03-08T06:34:06;100863.00;;;-1.38;81.88
86320;BME280;76974;51.278;16.870;2024-03-08T06:36:35;100851.63;;;-1.14;81.40
86320;BME280;76974;51.278;16.870;2024-03-08T06:39:00;100872.44;;;-0.93;81.19
86320;BME280;76974;51.278;16.870;2024-03-08T06:41:26;100857.03;;;-0.88;80.69
86320;BME280;76974;51.278;16.870;2024-03-08T06:43:52;100861.97;;;-0.69;80.56
86320;BME280;76974;51.278;16.870;2024-03-08T06:46:22;100872.34;;;-0.52;79.96
86320;BME280;76974;51.278;16.870;2024-03-08T06:48:48;100867.22;;;-0.55;80.49
86320;BME280;76974;51.278;16.870;2024-03-08T06:51:14;100866.91;;;-0.63;79.55
86320;BME280;76974;51.278;16.870;2024-03-08T06:53:40;100871.72;;;-0.43;78.52
86320;BME280;76974;51.278;16.870;2024-03-08T06:56:06;100879.38;;;-0.39;78.93
86320;BME280;76974;51.278;16.870;2024-03-08T06:58:33;100864.19;;;-0.11;78.69
86320;BME280;76974;51.278;16.870;2024-03-08T07:00:58;100861.84;;;-0.28;79.61
86320;BME280;76974;51.278;16.870;2024-03-08T07:03:25;100874.63;;;-0.21;78.11
86320;BME280;76974;51.278;16.870;2024-03-08T07:05:52;100877.38;;;-0.22;78.55
86320;BME280;76974;51.278;16.870;2024-03-08T07:08:18;100870.25;;;-0.09;77.79
86320;BME280;76974;51.278;16.870;2024-03-08T07:10:44;100864.69;;;0.32;77.63
86320;BME280;76974;51.278;16.870;2024-03-08T07:13:10;100863.94;;;0.55;77.70
86320;BME280;76974;51.278;16.870;2024-03-08T07:15:36;100869.72;;;-0.14;77.82
86320;BME280;76974;51.278;16.870;2024-03-08T07:18:02;100872.38;;;0.24;77.38
86320;BME280;76974;51.278;16.870;2024-03-08T07:23:49;100866.28;;;0.34;76.99
86320;BME280;76974;51.278;16.870;2024-03-08T07:29:46;100863.06;;;0.55;75.25
86320;BME280;76974;51.278;16.870;2024-03-08T07:32:11;100866.13;;;0.61;75.53
86320;BME280;76974;51.278;16.870;2024-03-08T07:34:47;100863.47;;;0.61;74.62
86320;BME280;76974;51.278;16.870;2024-03-08T07:40:36;100868.44;;;0.79;75.24
86320;BME280;76974;51.278;16.870;2024-03-08T07:43:09;100867.28;;;0.70;75.60
86320;BME280;76974;51.278;16.870;2024-03-08T07:45:36;100863.19;;;0.90;74.38
86320;BME280;76974;51.278;16.870;2024-03-08T07:48:03;100858.22;;;0.73;75.23
86320;BME280;76974;51.278;16.870;2024-03-08T07:50:28;100868.22;;;0.82;75.33
86320;BME280;76974;51.278;16.870;2024-03-08T07:52:54;100861.38;;;1.14;73.96
86320;BME280;76974;51.278;16.870;2024-03-08T07:55:20;100860.50;;;1.37;74.05
86320;BME280;76974;51.278;16.870;2024-03-08T07:57:49;100851.13;;;0.60;74.42
86320;BME280;76974;51.278;16.870;2024-03-08T08:00:15;100863.63;;;1.31;73.66
86320;BME280;76974;51.278;16.870;2024-03-08T08:02:46;100844.59;;;0.64;74.87
86320;BME280;76974;51.278;16.870;2024-03-08T08:05:12;100866.25;;;1.20;74.25
86320;BME280;76974;51.278;16.870;2024-03-08T08:07:39;100870.31;;;1.13;74.06
86320;BME280;76974;51.278;16.870;2024-03-08T08:10:06;100857.44;;;1.31;73.48
86320;BME280;76974;51.278;16.870;2024-03-08T08:12:32;100860.78;;;1.46;73.45
86320;BME280;76974;51.278;16.870;2024-03-08T08:14:59;100849.06;;;1.59;73.36
86320;BME280;76974;51.278;16.870;2024-03-08T08:17:25;100865.84;;;1.14;74.96
86320;BME280;76974;51.278;16.870;2024-03-08T08:19:51;100861.41;;;1.95;72.60
86320;BME280;76974;51.278;16.870;2024-03-08T08:22:16;100847.00;;;1.63;72.42
86320;BME280;76974;51.278;16.870;2024-03-08T08:24:43;100840.03;;;1.95;71.43
86320;BME280;76974;51.278;16.870;2024-03-08T08:27:09;100846.28;;;1.72;72.85
86320;BME280;76974;51.278;16.870;2024-03-08T08:29:37;100861.81;;;1.67;71.46
86320;BME280;76974;51.278;16.870;2024-03-08T08:32:03;100807.19;;;1.49;72.38
86320;BME280;76974;51.278;16.870;2024-03-08T08:34:29;100856.56;;;2.11;72.06
86320;BME280;76974;51.278;16.870;2024-03-08T08:36:57;100846.25;;;1.50;71.83
86320;BME280;76974;51.278;16.870;2024-03-08T08:39:23;100843.81;;;1.47;72.55
86320;BME280;76974;51.278;16.870;2024-03-08T08:41:51;100841.50;;;2.22;71.90
86320;BME280;76974;51.278;16.870;2024-03-08T08:44:17;100835.06;;;2.58;69.63
86320;BME280;76974;51.278;16.870;2024-03-08T08:46:43;100840.50;;;2.45;70.63
86320;BME280;76974;51.278;16.870;2024-03-08T08:49:09;100824.75;;;2.20;71.68
86320;BME280;76974;51.278;16.870;2024-03-08T08:51:40;100838.44;;;2.15;71.34
86320;BME280;76974;51.278;16.870;2024-03-08T08:54:06;100829.13;;;2.43;69.63
86320;BME280;76974;51.278;16.870;2024-03-08T08:56:35;100834.78;;;2.61;68.01
86320;BME280;76974;51.278;16.870;2024-03-08T08:59:00;100845.53;;;3.36;68.24
86320;BME280;76974;51.278;16.870;2024-03-08T09:01:26;100831.19;;;2.94;67.70
86320;BME280;76974;51.278;16.870;2024-03-08T09:03:52;100837.78;;;2.78;68.68
86320;BME280;76974;51.278;16.870;2024-03-08T09:06:19;100824.94;;;2.61;69.01
86320;BME280;76974;51.278;16.870;2024-03-08T09:08:45;100829.84;;;3.31;66.78
86320;BME280;76974;51.278;16.870;2024-03-08T09:11:11;100808.00;;;3.47;66.26
86320;BME280;76974;51.278;16.870;2024-03-08T09:13:37;100824.38;;;3.01;67.67
86320;BME280;76974;51.278;16.870;2024-03-08T09:16:03;100828.34;;;2.74;68.49
86320;BME280;76974;51.278;16.870;2024-03-08T09:18:30;100822.97;;;3.49;67.39
86320;BME280;76974;51.278;16.870;2024-03-08T09:21:00;100824.44;;;3.10;68.18
86320;BME280;76974;51.278;16.870;2024-03-08T09:23:25;100825.09;;;3.35;66.46
86320;BME280;76974;51.278;16.870;2024-03-08T09:25:57;100816.13;;;2.93;66.67
86320;BME280;76974;51.278;16.870;2024-03-08T09:28:24;100818.91;;;3.34;67.77
86320;BME280;76974;51.278;16.870;2024-03-08T09:30:50;100802.19;;;3.63;64.38
86320;BME280;76974;51.278;16.870;2024-03-08T09:33:16;100804.19;;;3.29;65.83
86320;BME280;76974;51.278;16.870;2024-03-08T09:35:46;100811.47;;;3.59;65.11
86320;BME280;76974;51.278;16.870;2024-03-08T09:38:16;100824.25;;;3.76;65.05
86320;BME280;76974;51.278;16.870;2024-03-08T09:40:42;100805.69;;;3.84;63.15
86320;BME280;76974;51.278;16.870;2024-03-08T09:43:09;100795.59;;;4.68;62.50
86320;BME280;76974;51.278;16.870;2024-03-08T09:45:37;100795.03;;;4.24;63.29
86320;BME280;76974;51.278;16.870;2024-03-08T09:48:11;100784.41;;;4.63;60.70
86320;BME280;76974;51.278;16.870;2024-03-08T09:50:42;100797.56;;;4.75;60.28
86320;BME280;76974;51.278;16.870;2024-03-08T09:53:11;100787.59;;;5.16;61.42
86320;BME280;76974;51.278;16.870;2024-03-08T09:55:38;100787.22;;;4.61;61.74
86320;BME280;76974;51.278;16.870;2024-03-08T09:58:10;100771.78;;;4.24;62.70
86320;BME280;76974;51.278;16.870;2024-03-08T10:00:55;100774.84;;;4.20;62.94
86320;BME280;76974;51.278;16.870;2024-03-08T10:03:23;100772.22;;;5.18;59.25
86320;BME280;76974;51.278;16.870;2024-03-08T10:05:51;100770.78;;;5.14;58.66
86320;BME280;76974;51.278;16.870;2024-03-08T10:08:17;100754.94;;;5.20;58.27
86320;BME280;76974;51.278;16.870;2024-03-08T10:10:43;100764.41;;;6.10;56.48
86320;BME280;76974;51.278;16.870;2024-03-08T10:13:09;100759.50;;;5.01;58.10
86320;BME280;76974;51.278;16.870;2024-03-08T10:15:39;100760.75;;;6.28;56.47
86320;BME280;76974;51.278;16.870;2024-03-08T10:18:06;100759.47;;;6.32;54.58
86320;BME280;76974;51.278;16.870;2024-03-08T10:20:33;100759.91;;;6.28;54.81
86320;BME280;76974;51.278;16.870;2024-03-08T10:23:03;100762.72;;;5.14;58.94
86320;BME280;76974;51.278;16.870;2024-03-08T10:25:34;100760.19;;;6.34;56.09
86320;BME280;76974;51.278;16.870;2024-03-08T10:28:03;100753.19;;;6.14;55.46
86320;BME280;76974;51.278;16.870;2024-03-08T10:30:30;100754.66;;;6.09;54.43
86320;BME280;76974;51.278;16.870;2024-03-08T10:32:56;100757.34;;;6.09;55.61
86320;BME280;76974;51.278;16.870;2024-03-08T10:35:22;100762.03;;;5.02;58.31
86320;BME280;76974;51.278;16.870;2024-03-08T10:37:50;100750.78;;;6.21;56.93
86320;BME280;76974;51.278;16.870;2024-03-08T10:40:28;100743.59;;;6.84;54.10
86320;BME280;76974;51.278;16.870;2024-03-08T10:42:56;100740.00;;;6.21;54.49
86320;BME280;76974;51.278;16.870;2024-03-08T10:45:34;100756.97;;;5.94;55.61
86320;BME280;76974;51.278;16.870;2024-03-08T10:50:38;100750.50;;;7.04;54.70
86320;BME280;76974;51.278;16.870;2024-03-08T10:53:06;100756.59;;;5.60;57.73
86320;BME280;76974;51.278;16.870;2024-03-08T10:55:33;100754.38;;;5.36;57.01
86320;BME280;76974;51.278;16.870;2024-03-08T10:57:59;100720.25;;;6.40;54.22
86320;BME280;76974;51.278;16.870;2024-03-08T11:00:26;100752.78;;;5.53;55.24
86320;BME280;76974;51.278;16.870;2024-03-08T11:02:53;100728.50;;;6.74;53.24
86320;BME280;76974;51.278;16.870;2024-03-08T11:05:39;100738.91;;;6.14;54.25
86320;BME280;76974;51.278;16.870;2024-03-08T11:10:53;100736.56;;;6.56;54.44
86320;BME280;76974;51.278;16.870;2024-03-08T11:13:39;100710.44;;;6.66;51.16
86320;BME280;76974;51.278;16.870;2024-03-08T11:16:13;100736.28;;;6.31;53.97
86320;BME280;76974;51.278;16.870;2024-03-08T11:21:36;100725.78;;;6.38;51.77
86320;BME280;76974;51.278;16.870;2024-03-08T11:24:11;100724.34;;;5.70;53.10
86320;BME280;76974;51.278;16.870;2024-03-08T11:26:39;100716.63;;;6.49;50.12
86320;BME280;76974;51.278;16.870;2024-03-08T11:32:03;100704.78;;;6.24;51.18
86320;BME280;76974;51.278;16.870;2024-03-08T11:34:29;100682.53;;;7.02;46.14
86320;BME280;76974;51.278;16.870;2024-03-08T11:36:56;100704.56;;;6.35;49.27
86320;BME280;76974;51.278;16.870;2024-03-08T11:39:22;100704.47;;;6.45;48.87
86320;BME280;76974;51.278;16.870;2024-03-08T11:41:50;100702.38;;;6.66;47.88
86320;BME280;76974;51.278;16.870;2024-03-08T11:44:21;100667.97;;;6.60;47.34
86320;BME280;76974;51.278;16.870;2024-03-08T11:46:53;100686.78;;;5.97;49.53
86320;BME280;76974;51.278;16.870;2024-03-08T11:49:27;100659.16;;;6.85;48.49
86320;BME280;76974;51.278;16.870;2024-03-08T11:51:53;100682.38;;;6.86;47.31
86320;BME280;76974;51.278;16.870;2024-03-08T11:54:19;100680.00;;;7.01;49.76
86320;BME280;76974;51.278;16.870;2024-03-08T11:56:45;100680.22;;;5.72;50.24
86320;BME280;76974;51.278;16.870;2024-03-08T11:59:14;100674.84;;;6.72;48.60
86320;BME280;76974;51.278;16.870;2024-03-08T12:01:40;100670.91;;;6.49;47.49
86320;BME280;76974;51.278;16.870;2024-03-08T12:04:05;100672.75;;;6.48;48.44
86320;BME280;76974;51.278;16.870;2024-03-08T12:06:38;100652.28;;;6.20;46.73
86320;BME280;76974;51.278;16.870;2024-03-08T12:09:09;100657.44;;;6.31;46.66
86320;BME280;76974;51.278;16.870;2024-03-08T12:11:36;100656.66;;;6.21;47.51
86320;BME280;76974;51.278;16.870;2024-03-08T12:14:03;100644.63;;;6.78;47.11
86320;BME280;76974;51.278;16.870;2024-03-08T12:16:32;100656.25;;;7.48;47.07
86320;BME280;76974;51.278;16.870;2024-03-08T12:18:59;100647.31;;;7.22;47.00
86320;BME280;76974;51.278;16.870;2024-03-08T12:21:26;100655.66;;;6.22;47.48
86320;BME280;76974;51.278;16.870;2024-03-08T12:24:08;100640.81;;;7.06;46.97
86320;BME280;76974;51.278;16.870;2024-03-08T12:26:36;100649.81;;;7.41;48.11
86320;BME280;76974;51.278;16.870;2024-03-08T12:31:42;100647.75;;;6.91;47.42
86320;BME280;76974;51.278;16.870;2024-03-08T12:34:08;100637.59;;;7.29;46.31
86320;BME280;76974;51.278;16.870;2024-03-08T12:36:35;100633.53;;;6.81;47.04
86320;BME280;76974;51.278;16.870;2024-03-08T12:39:02;100633.47;;;6.73;48.04
86320;BME280;76974;51.278;16.870;2024-03-08T12:41:29;100632.41;;;5.76;48.67
86320;BME280;76974;51.278;16.870;2024-03-08T12:43:55;100641.91;;;6.07;49.49
86320;BME280;76974;51.278;16.870;2024-03-08T12:46:21;100625.97;;;6.41;48.65
86320;BME280;76974;51.278;16.870;2024-03-08T12:48:48;100628.16;;;6.10;48.84
86320;BME280;76974;51.278;16.870;2024-03-08T12:51:17;100627.19;;;6.02;49.09
86320;BME280;76974;51.278;16.870;2024-03-08T12:53:44;100625.81;;;5.97;48.75
86320;BME280;76974;51.278;16.870;2024-03-08T12:56:11;100612.72;;;7.09;48.27
86320;BME280;76974;51.278;16.870;2024-03-08T12:58:38;100607.31;;;6.83;49.12
86320;BME280;76974;51.278;16.870;2024-03-08T13:01:04;100616.16;;;6.93;47.13
86320;BME280;76974;51.278;16.870;2024-03-08T13:03:33;100605.09;;;6.61;47.83
86320;BME280;76974;51.278;16.870;2024-03-08T13:06:04;100583.25;;;7.07;48.59
86320;BME280;76974;51.278;16.870;2024-03-08T13:08:37;100597.00;;;7.56;46.62
86320;BME280;76974;51.278;16.870;2024-03-08T13:11:07;100591.63;;;6.79;47.16
86320;BME280;76974;51.278;16.870;2024-03-08T13:13:33;100608.09;;;6.76;48.23
86320;BME280;76974;51.278;16.870;2024-03-08T13:16:02;100581.81;;;6.69;47.65
86320;BME280;76974;51.278;16.870;2024-03-08T13:18:30;100592.00;;;7.61;46.18
86320;BME280;76974;51.278;16.870;2024-03-08T13:20:56;100567.81;;;7.78;45.42
86320;BME280;76974;51.278;16.870;2024-03-08T13:23:24;100586.47;;;7.37;46.32
86320;BME280;76974;51.278;16.870;2024-03-08T13:25:50;100556.25;;;6.48;46.63
86320;BME280;76974;51.278;16.870;2024-03-08T13:28:16;100558.13;;;7.25;46.46
86320;BME280;76974;51.278;16.870;2024-03-08T13:30:48;100584.94;;;7.34;47.63
86320;BME280;76974;51.278;16.870;2024-03-08T13:33:13;100574.75;;;7.46;45.69
86320;BME280;76974;51.278;16.870;2024-03-08T13:35:40;100575.72;;;7.11;47.04
86320;BME280;76974;51.278;16.870;2024-03-08T13:38:06;100557.97;;;7.26;46.84
86320;BME280;76974;51.278;16.870;2024-03-08T13:40:40;100563.84;;;7.64;46.19
86320;BME280;76974;51.278;16.870;2024-03-08T13:43:09;100551.28;;;7.38;45.32
86320;BME280;76974;51.278;16.870;2024-03-08T13:45:43;100546.31;;;6.66;46.51
86320;BME280;76974;51.278;16.870;2024-03-08T13:48:10;100564.31;;;6.30;47.87
86320;BME280;76974;51.278;16.870;2024-03-08T13:50:41;100566.00;;;6.49;47.91
86320;BME280;76974;51.278;16.870;2024-03-08T13:53:07;100565.91;;;6.58;48.18
86320;BME280;76974;51.278;16.870;2024-03-08T13:55:35;100555.56;;;7.15;47.65
86320;BME280;76974;51.278;16.870;2024-03-08T13:58:01;100552.00;;;6.63;48.26
86320;BME280;76974;51.278;16.870;2024-03-08T14:00:28;100552.53;;;6.66;48.82
86320;BME280;76974;51.278;16.870;2024-03-08T14:03:00;100548.75;;;6.77;48.47
86320;BME280;76974;51.278;16.870;2024-03-08T14:05:34;100555.63;;;6.97;47.72
86320;BME280;76974;51.278;16.870;2024-03-08T14:08:02;100526.56;;;6.57;48.40
86320;BME280;76974;51.278;16.870;2024-03-08T14:10:32;100550.56;;;6.51;49.17
86320;BME280;76974;51.278;16.870;2024-03-08T14:13:03;100558.78;;;6.31;50.11
86320;BME280;76974;51.278;16.870;2024-03-08T14:15:34;100551.19;;;6.27;50.05
86320;BME280;76974;51.278;16.870;2024-03-08T14:18:00;100546.44;;;6.39;50.29
86320;BME280;76974;51.278;16.870;2024-03-08T14:20:32;100537.88;;;6.43;49.68
86320;BME280;76974;51.278;16.870;2024-03-08T14:22:57;100539.69;;;6.60;49.24
86320;BME280;76974;51.278;16.870;2024-03-08T14:25:23;100510.47;;;6.40;50.46
86320;BME280;76974;51.278;16.870;2024-03-08T14:27:53;100525.94;;;6.63;49.53
86320;BME280;76974;51.278;16.870;2024-03-08T14:30:20;100521.69;;;6.35;51.05
86320;BME280;76974;51.278;16.870;2024-03-08T14:33:01;100525.78;;;6.65;48.96
86320;BME280;76974;51.278;16.870;2024-03-08T14:35:27;100525.22;;;6.79;48.89
86320;BME280;76974;51.278;16.870;2024-03-08T14:37:56;100530.59;;;6.79;49.62
86320;BME280;76974;51.278;16.870;2024-03-08T14:40:28;100522.34;;;7.06;48.42
86320;BME280;76974;51.278;16.870;2024-03-08T14:42:55;100501.97;;;7.04;48.88
86320;BME280;76974;51.278;16.870;2024-03-08T14:45:30;100505.69;;;6.77;48.57
86320;BME280;76974;51.278;16.870;2024-03-08T14:47:56;100503.88;;;6.60;50.48
86320;BME280;76974;51.278;16.870;2024-03-08T14:50:24;100519.66;;;6.55;50.44
86320;BME280;76974;51.278;16.870;2024-03-08T14:52:51;100513.19;;;6.65;49.67
86320;BME280;76974;51.278;16.870;2024-03-08T14:55:17;100508.25;;;6.17;51.07
86320;BME280;76974;51.278;16.870;2024-03-08T14:58:08;100504.16;;;6.31;50.86
86320;BME280;76974;51.278;16.870;2024-03-08T15:00:39;100501.56;;;6.21;51.59
86320;BME280;76974;51.278;16.870;2024-03-08T15:03:07;100502.56;;;6.38;52.01
86320;BME280;76974;51.278;16.870;2024-03-08T15:05:35;100517.09;;;6.10;51.98
86320;BME280;76974;51.278;16.870;2024-03-08T15:08:07;100486.41;;;5.85;53.30
86320;BME280;76974;51.278;16.870;2024-03-08T15:10:36;100511.25;;;6.14;53.70
86320;BME280;76974;51.278;16.870;2024-03-08T15:13:02;100499.25;;;6.26;53.62
86320;BME280;76974;51.278;16.870;2024-03-08T15:15:41;100492.34;;;5.88;54.04
86320;BME280;76974;51.278;16.870;2024-03-08T15:18:08;100495.81;;;5.98;53.31
86320;BME280;76974;51.278;16.870;2024-03-08T15:20:35;100493.38;;;6.05;52.95
86320;BME280;76974;51.278;16.870;2024-03-08T15:23:01;100499.13;;;5.92;52.85
86320;BME280;76974;51.278;16.870;2024-03-08T15:25:39;100484.72;;;5.84;52.42
86320;BME280;76974;51.278;16.870;2024-03-08T15:28:26;100499.22;;;5.73;53.49
86320;BME280;76974;51.278;16.870;2024-03-08T15:31:02;100486.19;;;5.78;53.55
86320;BME280;76974;51.278;16.870;2024-03-08T15:33:32;100486.78;;;5.72;53.38
86320;BME280;76974;51.278;16.870;2024-03-08T15:35:59;100478.59;;;5.74;53.21
86320;BME280;76974;51.278;16.870;2024-03-08T15:41:46;100475.72;;;5.57;54.73
86320;BME280;76974;51.278;16.870;2024-03-08T15:44:12;100465.44;;;5.53;54.42
86320;BME280;76974;51.278;16.870;2024-03-08T15:46:39;100467.41;;;5.51;54.38
86320;BME280;76974;51.278;16.870;2024-03-08T15:49:08;100468.88;;;5.45;55.56
86320;BME280;76974;51.278;16.870;2024-03-08T15:51:34;100469.09;;;5.52;54.31
86320;BME280;76974;51.278;16.870;2024-03-08T15:54:02;100474.84;;;5.39;55.03
86320;BME280;76974;51.278;16.870;2024-03-08T15:56:30;100459.03;;;5.36;54.68
86320;BME280;76974;51.278;16.870;2024-03-08T15:59:03;100468.34;;;5.42;54.56
86320;BME280;76974;51.278;16.870;2024-03-08T16:01:32;100468.91;;;5.36;54.97
86320;BME280;76974;51.278;16.870;2024-03-08T16:03:58;100457.34;;;5.08;56.12
86320;BME280;76974;51.278;16.870;2024-03-08T16:09:53;100477.63;;;5.20;56.00
86320;BME280;76974;51.278;16.870;2024-03-08T16:12:21;100466.00;;;5.02;56.16
86320;BME280;76974;51.278;16.870;2024-03-08T16:14:49;100471.69;;;4.89;57.26
86320;BME280;76974;51.278;16.870;2024-03-08T16:17:16;100469.19;;;4.87;56.81
86320;BME280;76974;51.278;16.870;2024-03-08T16:19:42;100476.47;;;4.95;57.14
86320;BME280;76974;51.278;16.870;2024-03-08T16:22:09;100472.31;;;4.83;57.64
86320;BME280;76974;51.278;16.870;2024-03-08T16:24:34;100471.22;;;4.66;58.43
86320;BME280;76974;51.278;16.870;2024-03-08T16:27:02;100475.03;;;4.73;58.70
86320;BME280;76974;51.278;16.870;2024-03-08T16:29:28;100455.53;;;4.71;58.06
86320;BME280;76974;51.278;16.870;2024-03-08T16:31:54;100459.09;;;4.62;58.59
86320;BME280;76974;51.278;16.870;2024-03-08T16:34:21;100466.84;;;4.65;58.28
86320;BME280;76974;51.278;16.870;2024-03-08T16:36:48;100465.34;;;4.43;59.05